Time;durP1;ratioP1;P1;durP2;ratioP2;P2;SDS_P1;SDS_P2;PMS_P1;PMS_P2;Temp;Humidity;BMP_temperature;BMP_pressure;BME280_temperature;BME280_humidity;BME280_pressure;Samples;Min_cycle;Max_cycle;Signal;HPM_P1;HPM_P2
2021/08/21 00:02:12;;;;;;;;;;;;;;;20.77;57.99;100008.41;4370661;32;35612;-88
2021/08/21 00:04:46;;;;;;;;;;;;;;;20.74;58.30;100006.13;4370892;32;35361;-89
2021/08/21 00:07:31;;;;;;;;;;;;;;;20.71;58.44;100005.69;4382863;32;33522;-89
2021/08/21 00:10:22;;;;;;;;;;;;;;;20.89;57.12;100006.78;4372842;32;34535;-88
2021/08/21 00:12:57;;;;;;;;;;;;;;;20.73;57.99;100006.31;4370600;32;35757;-89
2021/08/21 00:15:33;;;;;;;;;;;;;;;20.84;57.07;100003.00;4384595;32;34913;-89
2021/08/21 00:18:03;;;;;;;;;;;;;;;20.76;57.68;100004.03;4381877;32;33040;-89
2021/08/21 00:20:36;;;;;;;;;;;;;;;20.71;57.89;100006.50;4371355;32;33330;-89
2021/08/21 00:23:05;;;;;;;;;;;;;;;20.78;57.79;100007.34;4383412;32;35142;-89
2021/08/21 00:25:38;;;;;;;;;;;;;;;20.81;57.92;99998.84;4370483;32;35016;-87
2021/08/21 00:28:14;;;;;;;;;;;;;;;20.48;58.16;100010.59;4369938;32;33205;-89
2021/08/21 00:30:46;;;;;;;;;;;;;;;20.51;58.94;100002.09;4370801;32;33077;-88
2021/08/21 00:33:21;;;;;;;;;;;;;;;20.80;57.30;100007.97;4370435;32;35103;-89
2021/08/21 00:35:51;;;;;;;;;;;;;;;20.74;57.39;100005.28;4370746;32;34227;-89
2021/08/21 00:38:23;;;;;;;;;;;;;;;20.51;58.62;100014.75;4357239;32;32496;-88
2021/08/21 00:41:12;;;;;;;;;;;;;;;20.66;58.14;100002.75;4372968;32;34439;-89
2021/08/21 00:43:44;;;;;;;;;;;;;;;20.72;57.04;100010.91;4368867;32;34950;-89
2021/08/21 00:46:21;;;;;;;;;;;;;;;20.64;57.24;100005.66;4371596;32;34418;-90
2021/08/21 00:49:05;;;;;;;;;;;;;;;20.60;57.59;100003.56;4381348;32;32947;-88
2021/08/21 00:51:42;;;;;;;;;;;;;;;20.65;56.87;99998.38;4371477;32;35173;-88
2021/08/21 00:54:18;;;;;;;;;;;;;;;20.55;57.77;100008.75;4368564;32;35260;-89
2021/08/21 00:57:06;;;;;;;;;;;;;;;20.56;57.94;100009.59;4371905;32;34737;-88
2021/08/21 00:59:45;;;;;;;;;;;;;;;20.35;58.21;100004.28;4370314;32;33178;-88
2021/08/21 01:02:18;;;;;;;;;;;;;;;20.60;57.11;100004.41;4382856;32;33600;-88
2021/08/21 01:05:14;;;;;;;;;;;;;;;20.62;56.76;99999.63;4360305;32;34692;-89
2021/08/21 01:07:52;;;;;;;;;;;;;;;20.31;58.51;100014.69;4356807;32;36378;-87
2021/08/21 01:10:30;;;;;;;;;;;;;;;20.52;58.13;100004.56;4370564;32;34553;-89
2021/08/21 01:13:00;;;;;;;;;;;;;;;20.56;57.79;100005.00;4382633;32;33271;-89
2021/08/21 01:15:32;;;;;;;;;;;;;;;20.24;58.50;100011.13;4370599;32;35724;-89
2021/08/21 01:18:10;;;;;;;;;;;;;;;20.55;57.77;100002.53;4381538;32;34426;-87
2021/08/21 01:21:01;;;;;;;;;;;;;;;20.60;57.47;100007.09;4373003;32;32958;-89
2021/08/21 01:23:50;;;;;;;;;;;;;;;20.62;57.42;100007.72;4372685;32;34521;-89
2021/08/21 01:26:21;;;;;;;;;;;;;;;20.27;58.53;100007.19;4370502;32;34909;-89
2021/08/21 01:29:13;;;;;;;;;;;;;;;20.41;58.53;99998.94;4371545;32;34716;-89
2021/08/21 01:31:46;;;;;;;;;;;;;;;20.64;57.72;99997.56;4369032;32;34993;-89
2021/08/21 01:34:55;;;;;;;;;;;;;;;20.48;58.37;99994.37;4382803;32;34166;-89
2021/08/21 01:37:31;;;;;;;;;;;;;;;20.41;58.87;100004.34;4370923;32;34776;-88
2021/08/21 01:40:14;;;;;;;;;;;;;;;20.20;59.23;100001.72;4369944;32;34508;-90
2021/08/21 01:42:46;;;;;;;;;;;;;;;20.16;59.30;100002.31;4368716;32;33121;-89
2021/08/21 01:45:21;;;;;;;;;;;;;;;20.46;58.86;100004.56;4370370;32;34536;-89
2021/08/21 01:48:13;;;;;;;;;;;;;;;20.58;58.38;100000.22;4357152;32;34391;-89
2021/08/21 01:50:46;;;;;;;;;;;;;;;20.60;58.33;100007.09;4356088;32;33094;-89
2021/08/21 01:53:24;;;;;;;;;;;;;;;20.42;59.08;100003.31;4370601;32;33000;-89
2021/08/21 01:56:13;;;;;;;;;;;;;;;20.56;58.97;100002.31;4368911;32;35384;-88
2021/08/21 01:59:33;;;;;;;;;;;;;;;20.47;59.29;100008.09;4362701;32;36247;-88
2021/08/21 02:02:06;;;;;;;;;;;;;;;20.32;59.58;100007.41;4371554;32;34733;-88
2021/08/21 02:05:07;;;;;;;;;;;;;;;20.22;59.61;100007.78;4384588;32;32896;-88
2021/08/21 02:07:58;;;;;;;;;;;;;;;20.12;59.85;100003.78;4368873;32;35888;-89
2021/08/21 02:10:37;;;;;;;;;;;;;;;20.30;59.64;100014.88;4373153;32;35117;-87
2021/08/21 02:13:11;;;;;;;;;;;;;;;20.46;59.18;100014.56;4366559;32;35455;-88
2021/08/21 02:16:00;;;;;;;;;;;;;;;20.46;59.12;100011.84;4383934;32;35394;-88
2021/08/21 02:18:47;;;;;;;;;;;;;;;20.48;59.19;100009.78;4358436;32;34517;-89
2021/08/21 02:21:28;;;;;;;;;;;;;;;20.34;59.59;100008.88;4373128;32;35440;-88
2021/08/21 02:24:07;;;;;;;;;;;;;;;20.40;59.69;100013.50;4372909;32;34043;-89
2021/08/21 02:26:58;;;;;;;;;;;;;;;20.63;59.44;100009.41;4361172;32;34622;-88
2021/08/21 02:29:42;;;;;;;;;;;;;;;20.75;58.70;100010.47;4370575;32;34664;-88
2021/08/21 02:32:32;;;;;;;;;;;;;;;20.76;58.95;100012.16;4360835;32;36746;-89
2021/08/21 02:35:18;;;;;;;;;;;;;;;20.79;59.11;100005.50;4384841;32;34772;-88
2021/08/21 02:37:55;;;;;;;;;;;;;;;20.86;58.54;100004.50;4370549;32;33896;-89
2021/08/21 02:40:38;;;;;;;;;;;;;;;20.84;58.51;100005.72;4384306;32;33866;-89
2021/08/21 02:43:11;;;;;;;;;;;;;;;20.86;57.78;100009.06;4383352;32;35888;-88
2021/08/21 02:45:57;;;;;;;;;;;;;;;20.89;57.85;99998.69;4382527;32;34319;-89
2021/08/21 02:48:47;;;;;;;;;;;;;;;20.79;57.88;100005.50;4380369;32;33347;-89
2021/08/21 02:51:26;;;;;;;;;;;;;;;20.74;58.15;100000.72;4384056;32;33402;-89
2021/08/21 02:54:15;;;;;;;;;;;;;;;20.77;57.86;100008.41;4373175;32;34399;-88
2021/08/21 02:57:04;;;;;;;;;;;;;;;20.61;58.61;100006.06;4383951;32;34542;-88
2021/08/21 02:59:39;;;;;;;;;;;;;;;20.70;58.35;100004.03;4369086;32;32450;-88
2021/08/21 03:02:31;;;;;;;;;;;;;;;20.70;58.29;100001.31;4374446;32;33939;-88
2021/08/21 03:05:19;;;;;;;;;;;;;;;20.70;57.99;100004.84;4385207;32;35923;-88
2021/08/21 03:07:51;;;;;;;;;;;;;;;20.68;58.25;100006.91;4369498;32;35092;-88
2021/08/21 03:10:39;;;;;;;;;;;;;;;20.65;58.33;100004.62;4373869;32;33887;-88
2021/08/21 03:13:10;;;;;;;;;;;;;;;20.60;58.68;100004.41;4358543;32;34369;-88
2021/08/21 03:15:47;;;;;;;;;;;;;;;20.60;58.59;100006.28;4369494;32;35437;-88
2021/08/21 03:18:18;;;;;;;;;;;;;;;20.53;58.88;100008.12;4369742;32;34166;-88
2021/08/21 03:20:54;;;;;;;;;;;;;;;20.43;59.73;100015.78;4372495;32;33448;-87
2021/08/21 03:23:26;;;;;;;;;;;;;;;20.40;59.33;100010.78;4371527;32;34625;-89
2021/08/21 03:25:56;;;;;;;;;;;;;;;20.42;59.45;100010.56;4371760;32;36988;-88
2021/08/21 03:28:34;;;;;;;;;;;;;;;20.45;59.42;100008.28;4345078;32;34689;-88
2021/08/21 03:31:12;;;;;;;;;;;;;;;20.44;59.29;100012.03;4370980;32;33626;-89
2021/08/21 03:33:50;;;;;;;;;;;;;;;20.49;58.89;100014.94;4372532;32;33983;-88
2021/08/21 03:36:26;;;;;;;;;;;;;;;20.50;58.48;100019.34;4381735;32;36011;-89
2021/08/21 03:39:02;;;;;;;;;;;;;;;20.48;58.49;100017.88;4383184;32;34422;-89
2021/08/21 03:41:36;;;;;;;;;;;;;;;20.46;58.69;100026.19;4371615;32;33950;-89
2021/08/21 03:44:25;;;;;;;;;;;;;;;20.40;59.08;100016.19;4360659;32;33131;-91
2021/08/21 03:47:11;;;;;;;;;;;;;;;20.40;59.33;100024.28;4360383;32;36603;-90
2021/08/21 03:49:55;;;;;;;;;;;;;;;20.47;58.71;100021.62;4384476;32;35543;-89
2021/08/21 03:52:48;;;;;;;;;;;;;;;20.42;59.05;100026.78;4373763;32;34000;-92
2021/08/21 03:55:21;;;;;;;;;;;;;;;20.39;59.65;100030.72;4369689;32;35214;-91
2021/08/21 03:57:58;;;;;;;;;;;;;;;20.43;59.00;100029.28;4383833;32;34961;-91
2021/08/21 04:00:43;;;;;;;;;;;;;;;20.41;58.82;100036.78;4384774;32;34300;-89
2021/08/21 04:03:32;;;;;;;;;;;;;;;20.32;59.21;100035.28;4372923;32;32079;-91
2021/08/21 04:06:10;;;;;;;;;;;;;;;20.33;59.36;100036.94;4357909;32;34371;-91
2021/08/21 04:08:46;;;;;;;;;;;;;;;20.33;59.41;100039.63;4365779;32;35205;-91
2021/08/21 04:11:50;;;;;;;;;;;;;;;20.32;59.40;100034.44;4374646;32;35147;-91
2021/08/21 04:14:26;;;;;;;;;;;;;;;20.33;59.24;100034.22;4371634;32;33375;-92
2021/08/21 04:17:12;;;;;;;;;;;;;;;20.26;59.63;100041.47;4359758;32;33294;-91
2021/08/21 04:20:03;;;;;;;;;;;;;;;20.18;60.04;100041.63;4372358;32;35647;-91
2021/08/21 04:22:59;;;;;;;;;;;;;;;20.25;59.86;100036.25;4369829;32;34863;-91
2021/08/21 04:25:47;;;;;;;;;;;;;;;20.27;59.75;100045.84;4381999;32;32678;-91
2021/08/21 04:28:16;;;;;;;;;;;;;;;20.31;59.87;100048.97;4357705;32;33801;-91
2021/08/21 04:30:48;;;;;;;;;;;;;;;20.36;59.70;100041.94;4357339;32;34644;-90
2021/08/21 04:33:32;;;;;;;;;;;;;;;20.42;59.30;100051.09;4359339;32;34049;-90
2021/08/21 04:36:02;;;;;;;;;;;;;;;20.40;59.22;100055.88;4357298;32;32276;-91
2021/08/21 04:38:50;;;;;;;;;;;;;;;20.37;59.38;100053.59;4358858;32;35870;-91
2021/08/21 04:41:42;;;;;;;;;;;;;;;20.34;59.54;100057.53;4382551;32;35777;-91
2021/08/21 04:44:30;;;;;;;;;;;;;;;20.37;59.40;100048.19;4361926;32;34661;-92
2021/08/21 04:47:18;;;;;;;;;;;;;;;20.38;59.58;100052.56;4382158;32;32653;-92
2021/08/21 04:49:48;;;;;;;;;;;;;;;20.32;59.99;100064.16;4382866;32;34960;-90
2021/08/21 04:52:20;;;;;;;;;;;;;;;20.09;60.56;100063.63;4369031;32;34087;-92
2021/08/21 04:54:49;;;;;;;;;;;;;;;20.18;60.53;100063.25;4357408;32;33659;-91
2021/08/21 04:57:39;;;;;;;;;;;;;;;20.26;60.64;100060.38;4358869;32;31787;-92
2021/08/21 05:00:10;;;;;;;;;;;;;;;20.31;60.48;100062.47;4369319;32;34772;-91
2021/08/21 05:02:48;;;;;;;;;;;;;;;20.24;60.39;100064.31;4370547;32;35325;-92
2021/08/21 05:05:40;;;;;;;;;;;;;;;20.43;59.91;100067.13;4372551;32;35449;-92
2021/08/21 05:08:12;;;;;;;;;;;;;;;20.42;59.84;100070.03;4370366;32;32206;-90
2021/08/21 05:11:21;;;;;;;;;;;;;;;20.54;59.59;100066.53;4374079;32;34451;-92
2021/08/21 05:14:05;;;;;;;;;;;;;;;20.50;59.69;100067.16;4357879;32;33861;-91
2021/08/21 05:16:55;;;;;;;;;;;;;;;20.84;58.78;100071.47;4372095;32;34790;-90
2021/08/21 05:19:52;;;;;;;;;;;;;;;21.03;58.23;100067.16;4382072;32;32508;-92
2021/08/21 05:25:32;;;;;;;;;;;;;;;21.04;58.53;100074.25;4383260;32;34439;-91
2021/08/21 05:28:19;;;;;;;;;;;;;;;21.09;58.40;100072.59;4371048;32;34484;-91
2021/08/21 05:31:07;;;;;;;;;;;;;;;21.06;58.55;100075.72;4371808;32;33027;-91
2021/08/21 05:33:43;;;;;;;;;;;;;;;21.24;58.24;100075.13;4371493;32;32508;-92
2021/08/21 05:36:27;;;;;;;;;;;;;;;21.08;58.55;100076.31;4372757;32;34784;-91
2021/08/21 05:39:13;;;;;;;;;;;;;;;21.16;59.05;100076.16;4372598;32;34643;-92
2021/08/21 05:42:02;;;;;;;;;;;;;;;21.38;58.51;100071.41;4373842;32;32770;-91
2021/08/21 05:44:51;;;;;;;;;;;;;;;21.53;58.10;100069.34;4373111;32;34332;-91
2021/08/21 05:47:35;;;;;;;;;;;;;;;21.46;58.03;100074.72;4365586;32;34501;-91
2021/08/21 05:50:23;;;;;;;;;;;;;;;21.50;58.58;100075.16;4373125;32;34652;-90
2021/08/21 05:52:55;;;;;;;;;;;;;;;21.37;59.24;100088.69;4367559;32;33422;-91
2021/08/21 05:55:43;;;;;;;;;;;;;;;21.60;58.33;100086.41;4383458;32;33832;-91
2021/08/21 05:58:31;;;;;;;;;;;;;;;21.99;57.50;100091.87;4383395;32;35482;-91
2021/08/21 06:01:19;;;;;;;;;;;;;;;22.17;56.64;100087.44;4377531;32;35288;-92
2021/08/21 06:04:09;;;;;;;;;;;;;;;22.25;56.93;100091.78;4352622;32;31863;-91
2021/08/21 06:06:45;;;;;;;;;;;;;;;22.59;56.17;100096.97;4379873;32;36186;-92
2021/08/21 06:09:33;;;;;;;;;;;;;;;22.67;56.04;100094.81;4369625;32;35488;-91
2021/08/21 06:12:01;;;;;;;;;;;;;;;22.72;56.12;100092.31;4377784;32;34875;-91
2021/08/21 06:14:38;;;;;;;;;;;;;;;23.11;55.47;100094.84;4379250;32;33023;-90
2021/08/21 06:17:25;;;;;;;;;;;;;;;23.13;55.31;100090.03;4381004;32;34486;-91
2021/08/21 06:19:56;;;;;;;;;;;;;;;23.22;54.51;100093.38;4367339;32;34555;-91
2021/08/21 06:22:32;;;;;;;;;;;;;;;23.35;54.57;100099.53;4371947;32;34190;-90
2021/08/21 06:25:01;;;;;;;;;;;;;;;23.53;53.03;100087.91;4370433;32;32057;-90
2021/08/21 06:27:49;;;;;;;;;;;;;;;23.91;50.64;100082.19;4370802;32;32302;-91
2021/08/21 06:30:33;;;;;;;;;;;;;;;23.88;52.12;100092.66;4371568;32;34660;-91
2021/08/21 06:33:05;;;;;;;;;;;;;;;24.13;51.61;100091.63;4380747;32;33986;-90
2021/08/21 06:35:35;;;;;;;;;;;;;;;24.01;52.81;100085.22;4370382;32;33636;-91
2021/08/21 06:38:22;;;;;;;;;;;;;;;24.20;53.22;100095.06;4381563;32;33687;-90
2021/08/21 06:41:12;;;;;;;;;;;;;;;24.36;53.09;100099.13;4359223;32;34520;-90
2021/08/21 06:44:03;;;;;;;;;;;;;;;24.48;52.64;100091.87;4379340;32;34914;-91
2021/08/21 06:46:54;;;;;;;;;;;;;;;24.50;52.50;100098.75;4373300;32;33241;-91
2021/08/21 06:49:31;;;;;;;;;;;;;;;24.76;51.72;100098.44;4373306;32;34229;-91
2021/08/21 06:52:19;;;;;;;;;;;;;;;25.07;50.52;100094.72;4372363;32;35995;-89
2021/08/21 06:54:47;;;;;;;;;;;;;;;24.91;51.40;100100.81;4369165;32;33581;-90
2021/08/21 06:57:31;;;;;;;;;;;;;;;24.95;51.53;100097.41;4369905;32;33019;-90
2021/08/21 07:00:16;;;;;;;;;;;;;;;24.75;51.92;100098.69;4358919;32;32765;-90
2021/08/21 07:02:59;;;;;;;;;;;;;;;25.14;50.92;100095.47;4383061;32;36309;-89
2021/08/21 07:05:43;;;;;;;;;;;;;;;25.16;50.91;100094.19;4372065;32;34421;-90
2021/08/21 07:08:16;;;;;;;;;;;;;;;25.06;50.85;100095.78;4381339;32;32826;-89
2021/08/21 07:10:51;;;;;;;;;;;;;;;25.39;50.31;100104.34;4361541;32;33249;-90
2021/08/21 07:13:40;;;;;;;;;;;;;;;25.67;49.67;100101.84;4378200;32;36522;-90
2021/08/21 07:16:13;;;;;;;;;;;;;;;25.81;48.05;100095.09;4355782;32;35813;-90
2021/08/21 07:18:48;;;;;;;;;;;;;;;25.62;49.09;100099.81;4370826;32;33419;-90
2021/08/21 07:21:24;;;;;;;;;;;;;;;25.64;48.99;100096.81;4370615;32;34181;-90
2021/08/21 07:23:56;;;;;;;;;;;;;;;25.84;48.66;100103.62;4370523;32;35247;-89
2021/08/21 07:26:26;;;;;;;;;;;;;;;26.05;47.15;100102.28;4383665;32;33434;-89
2021/08/21 07:28:54;;;;;;;;;;;;;;;25.68;48.73;100111.66;4383408;32;32949;-89
2021/08/21 07:31:26;;;;;;;;;;;;;;;25.78;48.62;100101.81;4383689;32;33324;-89
2021/08/21 07:34:01;;;;;;;;;;;;;;;26.39;45.81;100104.97;4357523;32;35857;-89
2021/08/21 07:36:38;;;;;;;;;;;;;;;26.13;46.97;100110.09;4357815;32;36422;-90
2021/08/21 07:39:07;;;;;;;;;;;;;;;26.22;45.42;100117.69;4368936;32;34247;-90
2021/08/21 07:41:43;;;;;;;;;;;;;;;26.16;44.96;100115.88;4370399;32;34615;-88
2021/08/21 07:44:11;;;;;;;;;;;;;;;26.66;44.65;100113.50;4369555;32;35006;-90
2021/08/21 07:46:55;;;;;;;;;;;;;;;26.96;42.44;100112.25;4371548;32;34422;-90
2021/08/21 07:49:26;;;;;;;;;;;;;;;26.79;42.49;100113.28;4381413;32;33192;-90
2021/08/21 07:51:58;;;;;;;;;;;;;;;27.08;42.54;100118.50;4383291;32;33144;-90
2021/08/21 07:54:34;;;;;;;;;;;;;;;26.79;40.53;100118.72;4368048;32;34716;-90
2021/08/21 07:57:03;;;;;;;;;;;;;;;26.56;41.88;100122.31;4353806;32;35741;-89
2021/08/21 07:59:46;;;;;;;;;;;;;;;27.11;42.30;100118.03;4371399;32;33661;-89
2021/08/21 08:02:44;;;;;;;;;;;;;;;26.90;41.68;100131.50;4372629;32;33543;-88
2021/08/21 08:05:17;;;;;;;;;;;;;;;27.11;41.08;100120.78;4381499;32;35954;-89
2021/08/21 08:08:04;;;;;;;;;;;;;;;27.15;41.22;100121.97;4382970;32;35285;-89
2021/08/21 08:10:49;;;;;;;;;;;;;;;27.26;41.31;100126.53;4371356;32;34259;-90
2021/08/21 08:13:38;;;;;;;;;;;;;;;27.16;40.22;100128.28;4368452;32;33277;-89
2021/08/21 08:16:08;;;;;;;;;;;;;;;27.56;40.37;100127.94;4369542;32;35161;-89
2021/08/21 08:19:01;;;;;;;;;;;;;;;27.25;39.83;100133.09;4372322;32;34391;-87
2021/08/21 08:21:32;;;;;;;;;;;;;;;27.55;37.95;100134.50;4369128;32;32426;-89
2021/08/21 08:24:19;;;;;;;;;;;;;;;27.56;38.80;100135.34;4370921;32;35225;-92
2021/08/21 08:26:51;;;;;;;;;;;;;;;27.11;38.30;100135.25;4382994;32;34980;-88
2021/08/21 08:29:22;;;;;;;;;;;;;;;27.00;38.80;100140.75;4357724;32;34349;-91
2021/08/21 08:31:58;;;;;;;;;;;;;;;27.17;38.11;100138.94;4370681;32;32979;-89
2021/08/21 08:34:27;;;;;;;;;;;;;;;27.45;38.40;100144.41;4382559;32;33867;-89
2021/08/21 08:36:59;;;;;;;;;;;;;;;27.40;38.75;100136.94;4370079;32;34666;-88
2021/08/21 08:39:44;;;;;;;;;;;;;;;27.79;38.47;100132.50;4370714;32;34558;-90
2021/08/21 08:42:15;;;;;;;;;;;;;;;27.90;36.94;100132.44;4356181;32;33661;-89
2021/08/21 08:44:54;;;;;;;;;;;;;;;28.07;36.92;100130.53;4382438;32;33237;-89
2021/08/21 08:47:28;;;;;;;;;;;;;;;28.17;37.89;100138.91;4369705;32;36542;-88
2021/08/21 08:50:03;;;;;;;;;;;;;;;28.43;36.43;100134.66;4365611;32;33964;-89
2021/08/21 08:52:51;;;;;;;;;;;;;;;28.29;37.09;100136.03;4346482;32;32540;-89
2021/08/21 08:55:28;;;;;;;;;;;;;;;28.42;37.94;100133.00;4367544;32;33843;-88
2021/08/21 08:57:58;;;;;;;;;;;;;;;28.93;36.59;100140.88;4354161;32;35034;-88
2021/08/21 09:00:30;;;;;;;;;;;;;;;28.46;36.23;100128.69;4354607;32;34965;-88
2021/08/21 09:03:00;;;;;;;;;;;;;;;28.76;36.24;100137.31;4329665;32;33433;-89
2021/08/21 09:05:48;;;;;;;;;;;;;;;28.31;35.81;100132.00;4368482;32;33825;-90
2021/08/21 09:08:21;;;;;;;;;;;;;;;29.01;35.56;100132.22;4356048;32;34471;-89
2021/08/21 09:10:57;;;;;;;;;;;;;;;29.27;35.44;100131.44;4356182;32;33829;-89
2021/08/21 09:13:29;;;;;;;;;;;;;;;29.26;36.12;100125.09;4355921;32;33613;-89
2021/08/21 09:16:05;;;;;;;;;;;;;;;29.27;35.31;100126.75;4369171;32;34171;-89
2021/08/21 09:18:37;;;;;;;;;;;;;;;29.13;33.83;100132.88;4355216;32;34606;-90
2021/08/21 09:21:21;;;;;;;;;;;;;;;29.04;35.45;100128.94;4357034;32;35323;-90
2021/08/21 09:24:23;;;;;;;;;;;;;;;28.76;34.73;100137.31;4357318;32;33208;-89
2021/08/21 09:26:51;;;;;;;;;;;;;;;29.02;33.47;100131.97;4342625;32;34282;-89
2021/08/21 09:29:27;;;;;;;;;;;;;;;29.09;34.71;100129.03;4355724;32;36810;-88
2021/08/21 09:32:06;;;;;;;;;;;;;;;29.08;34.94;100124.63;4369118;32;34640;-89
2021/08/21 09:34:37;;;;;;;;;;;;;;;28.94;34.25;100117.88;4355884;32;33640;-88
2021/08/21 09:37:11;;;;;;;;;;;;;;;29.40;34.15;100120.03;4355199;32;34817;-89
2021/08/21 09:39:41;;;;;;;;;;;;;;;29.12;33.76;100132.09;4354376;32;36061;-89
2021/08/21 09:42:17;;;;;;;;;;;;;;;29.23;35.01;100136.59;4356201;32;35248;-90
2021/08/21 09:44:46;;;;;;;;;;;;;;;29.15;32.96;100130.75;4351077;32;32329;-87
2021/08/21 09:47:26;;;;;;;;;;;;;;;29.33;33.82;100127.66;4341897;32;32892;-90
2021/08/21 09:50:17;;;;;;;;;;;;;;;29.12;32.62;100120.28;4367288;32;35695;-88
2021/08/21 09:52:59;;;;;;;;;;;;;;;29.54;32.46;100119.41;4332787;32;35494;-88
2021/08/21 09:55:29;;;;;;;;;;;;;;;29.33;34.50;100123.00;4354781;32;32898;-88
2021/08/21 09:58:03;;;;;;;;;;;;;;;29.41;34.46;100118.94;4354201;32;34919;-88
2021/08/21 10:00:33;;;;;;;;;;;;;;;29.25;32.36;100122.63;4354733;32;35876;-89
2021/08/21 10:03:17;;;;;;;;;;;;;;;28.98;33.17;100119.03;4331624;32;34423;-88
2021/08/21 10:05:48;;;;;;;;;;;;;;;29.67;32.85;100124.50;4354951;32;32460;-88
2021/08/21 10:08:22;;;;;;;;;;;;;;;29.60;33.04;100121.13;4340971;32;33254;-88
2021/08/21 10:10:54;;;;;;;;;;;;;;;29.43;33.11;100128.59;4355492;32;34451;-88
2021/08/21 10:13:28;;;;;;;;;;;;;;;29.46;32.83;100121.75;4355503;32;34214;-87
2021/08/21 10:16:07;;;;;;;;;;;;;;;30.07;31.73;100121.31;4344475;32;32365;-87
2021/08/21 10:18:36;;;;;;;;;;;;;;;29.76;31.57;100113.84;4355660;32;32588;-88
2021/08/21 10:21:07;;;;;;;;;;;;;;;29.23;32.84;100120.16;4354758;32;35207;-88
2021/08/21 10:23:39;;;;;;;;;;;;;;;29.49;34.24;100119.38;4352918;32;34200;-90
2021/08/21 10:26:30;;;;;;;;;;;;;;;29.68;31.82;100123.41;4350306;32;32750;-87
2021/08/21 10:29:00;;;;;;;;;;;;;;;30.09;30.57;100108.16;4357827;32;33054;-89
2021/08/21 10:31:47;;;;;;;;;;;;;;;29.97;31.24;100116.53;4359649;32;35500;-88
2021/08/21 10:34:15;;;;;;;;;;;;;;;29.50;31.02;100112.78;4368271;32;35581;-88
2021/08/21 10:36:51;;;;;;;;;;;;;;;30.00;32.91;100113.25;4369515;32;33042;-88
2021/08/21 10:39:20;;;;;;;;;;;;;;;30.37;31.39;100114.09;4368081;32;33378;-88
2021/08/21 10:41:49;;;;;;;;;;;;;;;30.65;30.82;100105.50;4379677;32;35653;-88
2021/08/21 10:44:38;;;;;;;;;;;;;;;30.09;31.45;100108.97;4368659;32;34557;-88
2021/08/21 10:47:31;;;;;;;;;;;;;;;30.41;32.03;100106.16;4354782;32;32200;-87
2021/08/21 10:50:11;;;;;;;;;;;;;;;30.54;31.39;100104.63;4365212;32;35287;-88
2021/08/21 10:52:47;;;;;;;;;;;;;;;30.72;30.87;100100.59;4368722;32;35831;-88
2021/08/21 10:55:20;;;;;;;;;;;;;;;30.63;30.92;100102.22;4370429;32;35148;-87
2021/08/21 10:58:20;;;;;;;;;;;;;;;30.97;29.82;100098.78;4358095;32;34110;-86
2021/08/21 11:01:00;;;;;;;;;;;;;;;30.66;29.89;100101.66;4356235;32;34762;-88
2021/08/21 11:03:30;;;;;;;;;;;;;;;30.54;31.08;100101.03;4370621;32;34373;-87
2021/08/21 11:05:58;;;;;;;;;;;;;;;30.98;29.94;100097.69;4369905;32;35542;-85
2021/08/21 11:08:27;;;;;;;;;;;;;;;31.07;32.54;100104.31;4357580;32;33710;-88
2021/08/21 11:11:08;;;;;;;;;;;;;;;30.74;30.64;100103.91;4365854;32;33160;-88
2021/08/21 11:13:49;;;;;;;;;;;;;;;30.83;29.67;100100.41;4384116;32;35777;-88
2021/08/21 11:16:20;;;;;;;;;;;;;;;31.02;29.66;100093.31;4357751;32;35357;-88
2021/08/21 11:18:50;;;;;;;;;;;;;;;30.77;29.67;100098.72;4367998;32;33674;-88
2021/08/21 11:21:30;;;;;;;;;;;;;;;31.73;29.33;100097.91;4358338;32;34608;-87
2021/08/21 11:23:58;;;;;;;;;;;;;;;32.57;27.29;100095.41;4383703;32;34908;-88
2021/08/21 11:26:26;;;;;;;;;;;;;;;33.12;26.40;100090.50;4370040;32;35266;-88
2021/08/21 11:29:09;;;;;;;;;;;;;;;33.66;25.77;100096.00;4382988;32;32948;-88
2021/08/21 11:31:54;;;;;;;;;;;;;;;35.02;25.12;100075.06;4345316;32;33341;-87
2021/08/21 11:34:21;;;;;;;;;;;;;;;35.56;24.17;100084.53;4369701;32;35740;-88
2021/08/21 11:36:50;;;;;;;;;;;;;;;36.11;24.28;100086.41;4357741;32;35302;-87
2021/08/21 11:39:18;;;;;;;;;;;;;;;36.38;21.77;100082.88;4382114;32;33202;-87
2021/08/21 11:41:53;;;;;;;;;;;;;;;35.76;22.41;100077.87;4350275;32;33856;-88
2021/08/21 11:44:29;;;;;;;;;;;;;;;35.82;25.10;100076.66;4368287;32;35250;-87
2021/08/21 11:47:08;;;;;;;;;;;;;;;35.94;23.98;100071.50;4343870;32;33748;-87
2021/08/21 11:49:36;;;;;;;;;;;;;;;36.35;23.94;100075.19;4369798;32;34473;-87
2021/08/21 11:52:04;;;;;;;;;;;;;;;35.61;23.09;100083.63;4357577;32;32989;-90
2021/08/21 11:54:32;;;;;;;;;;;;;;;34.75;24.01;100089.47;4369588;32;34801;-88
2021/08/21 11:57:01;;;;;;;;;;;;;;;34.09;25.33;100091.22;4369793;32;34134;-88
2021/08/21 11:59:30;;;;;;;;;;;;;;;34.70;25.84;100089.56;4369487;32;32997;-89
2021/08/21 12:02:08;;;;;;;;;;;;;;;35.19;25.96;100081.75;4356049;32;34384;-88
2021/08/21 12:04:36;;;;;;;;;;;;;;;35.18;23.47;100079.28;4366645;32;37858;-88
2021/08/21 12:07:04;;;;;;;;;;;;;;;35.25;22.37;100074.19;4369453;32;34142;-87
2021/08/21 12:09:31;;;;;;;;;;;;;;;35.84;24.15;100080.78;4369672;32;32858;-88
2021/08/21 12:12:07;;;;;;;;;;;;;;;35.03;23.10;100069.22;4364090;32;33418;-88
2021/08/21 12:14:36;;;;;;;;;;;;;;;34.58;23.69;100080.00;4369437;32;35384;-88
2021/08/21 12:17:05;;;;;;;;;;;;;;;34.73;26.62;100069.59;4369924;32;34738;-88
2021/08/21 12:19:34;;;;;;;;;;;;;;;34.47;25.44;100075.69;4369633;32;33341;-87
2021/08/21 12:22:03;;;;;;;;;;;;;;;34.89;26.50;100082.13;4364410;32;32906;-87
2021/08/21 12:24:32;;;;;;;;;;;;;;;34.86;25.89;100074.44;4380915;32;35728;-88
2021/08/21 12:27:00;;;;;;;;;;;;;;;34.60;26.09;100067.53;4369505;32;34839;-88
2021/08/21 12:29:32;;;;;;;;;;;;;;;34.47;25.65;100064.66;4369540;32;33263;-88
2021/08/21 12:32:03;;;;;;;;;;;;;;;34.43;25.60;100069.94;4381706;32;34785;-87
2021/08/21 12:34:31;;;;;;;;;;;;;;;34.43;25.83;100071.88;4356608;32;33874;-88
2021/08/21 12:37:05;;;;;;;;;;;;;;;34.28;27.44;100070.09;4369231;32;35715;-88
2021/08/21 12:39:40;;;;;;;;;;;;;;;34.30;25.24;100067.03;4369442;32;33855;-88
2021/08/21 12:42:17;;;;;;;;;;;;;;;34.58;26.29;100060.66;4370390;32;34594;-88
2021/08/21 12:44:45;;;;;;;;;;;;;;;34.19;26.49;100066.28;4380436;32;34657;-88
2021/08/21 12:47:22;;;;;;;;;;;;;;;33.81;27.62;100071.91;4369005;32;34182;-88
2021/08/21 12:49:54;;;;;;;;;;;;;;;33.86;27.38;100071.84;4320907;32;789242;-89
2021/08/21 12:52:23;;;;;;;;;;;;;;;34.45;27.65;100053.87;4369305;32;34829;-88
2021/08/21 12:54:58;;;;;;;;;;;;;;;34.66;26.15;100060.00;4354491;32;36025;-87
2021/08/21 12:57:30;;;;;;;;;;;;;;;34.63;25.79;100055.88;4368976;32;35386;-88
2021/08/21 13:00:07;;;;;;;;;;;;;;;34.65;27.51;100053.63;4351238;32;32901;-87
2021/08/21 13:02:39;;;;;;;;;;;;;;;34.66;25.43;100049.75;4355189;32;32455;-88
2021/08/21 13:05:10;;;;;;;;;;;;;;;34.82;24.99;100051.25;4368839;32;36233;-87
2021/08/21 13:07:40;;;;;;;;;;;;;;;35.05;23.91;100049.56;4368940;32;34253;-87
2021/08/21 13:10:16;;;;;;;;;;;;;;;35.00;25.31;100044.13;4344697;32;33991;-88
2021/08/21 13:12:45;;;;;;;;;;;;;;;35.34;23.52;100041.97;4367732;32;34107;-89
2021/08/21 13:15:14;;;;;;;;;;;;;;;34.68;23.82;100047.53;4377925;32;36052;-88
2021/08/21 13:17:42;;;;;;;;;;;;;;;34.72;25.86;100037.56;4356208;32;35148;-87
2021/08/21 13:20:12;;;;;;;;;;;;;;;34.71;25.02;100044.22;4356532;32;32615;-87
2021/08/21 13:22:41;;;;;;;;;;;;;;;34.84;26.30;100037.94;4374475;32;34900;-89
2021/08/21 13:25:10;;;;;;;;;;;;;;;34.68;25.85;100038.41;4382100;32;34579;-88
2021/08/21 13:27:38;;;;;;;;;;;;;;;34.79;26.12;100038.03;4368165;32;35407;-88
2021/08/21 13:30:07;;;;;;;;;;;;;;;34.75;25.47;100034.19;4355816;32;33460;-87
2021/08/21 13:32:37;;;;;;;;;;;;;;;34.77;24.47;100031.97;4368918;32;33673;-87
2021/08/21 13:35:06;;;;;;;;;;;;;;;35.13;25.55;100030.37;4368398;32;35795;-88
2021/08/21 13:37:36;;;;;;;;;;;;;;;35.10;24.84;100030.94;4355822;32;33415;-88